createdAt,value
2023-08-17T00:01:43.104Z,19.34
2023-08-17T00:06:44.886Z,19.27
2023-08-17T00:11:46.602Z,18.91
2023-08-17T00:16:51.486Z,19.32
2023-08-17T00:21:53.818Z,19.48
2023-08-17T00:26:55.469Z,19.64
2023-08-17T00:31:59.059Z,19.48
2023-08-17T00:37:00.782Z,19.35
2023-08-17T00:42:02.464Z,19.13
2023-08-17T00:47:05.821Z,19.23
2023-08-17T00:52:07.763Z,19.27
2023-08-17T00:57:10.864Z,19.00
2023-08-17T01:02:12.867Z,18.95
2023-08-17T01:07:14.540Z,19.06
2023-08-17T01:12:39.135Z,19.11
2023-08-17T01:17:45.088Z,19.41
2023-08-17T01:22:50.073Z,18.83
2023-08-17T01:27:51.811Z,18.72
2023-08-17T01:33:04.740Z,18.95
2023-08-17T01:38:10.807Z,18.88
2023-08-17T01:43:13.791Z,18.86
2023-08-17T01:48:15.472Z,18.73
2023-08-17T01:53:17.175Z,18.74
2023-08-17T01:58:18.865Z,19.13
2023-08-17T02:03:20.918Z,18.74
2023-08-17T02:08:23.960Z,18.65
2023-08-17T02:13:25.925Z,19.01
2023-08-17T02:18:27.685Z,18.86
2023-08-17T02:23:29.447Z,18.62
2023-08-17T02:28:31.249Z,18.27
2023-08-17T02:33:34.717Z,18.83
2023-08-17T02:38:37.953Z,18.63
2023-08-17T02:43:39.581Z,18.41
2023-08-17T02:48:41.212Z,18.47
2023-08-17T02:53:42.925Z,18.52
2023-08-17T02:58:44.695Z,18.75
2023-08-17T03:03:46.427Z,18.93
2023-08-17T03:08:48.157Z,18.84
2023-08-17T03:13:49.933Z,18.19
2023-08-17T03:18:51.753Z,18.35
2023-08-17T03:23:53.714Z,18.15
2023-08-17T03:28:55.814Z,18.26
2023-08-17T03:33:57.897Z,18.27
2023-08-17T03:39:00.270Z,18.25
2023-08-17T03:44:02.305Z,18.40
2023-08-17T03:49:04.154Z,18.33
2023-08-17T03:54:05.928Z,17.92
2023-08-17T03:59:07.700Z,18.24
2023-08-17T04:04:09.631Z,18.23
2023-08-17T04:09:11.417Z,18.16
2023-08-17T04:14:13.509Z,17.93
2023-08-17T04:19:15.554Z,17.76
2023-08-17T04:24:17.389Z,18.29
2023-08-17T04:29:19.261Z,18.19
2023-08-17T04:34:23.678Z,17.94
2023-08-17T04:39:25.462Z,18.48
2023-08-17T04:44:27.326Z,18.09
2023-08-17T04:49:29.201Z,17.66
2023-08-17T04:54:31.115Z,17.99
2023-08-17T04:59:32.881Z,18.84
2023-08-17T05:04:35.807Z,18.43
2023-08-17T05:09:38.412Z,18.27
2023-08-17T05:14:40.651Z,18.26
2023-08-17T05:19:43.044Z,18.07
2023-08-17T05:24:44.893Z,17.99
2023-08-17T05:29:46.989Z,18.63
2023-08-17T05:34:48.932Z,18.52
2023-08-17T05:39:50.999Z,18.26
2023-08-17T05:44:52.615Z,18.77
2023-08-17T05:49:54.258Z,19.06
2023-08-17T05:54:55.969Z,18.81
2023-08-17T05:59:57.882Z,18.43
2023-08-17T06:04:59.661Z,18.60
2023-08-17T06:10:01.479Z,18.66
2023-08-17T06:15:04.361Z,19.48
2023-08-17T06:20:10.899Z,18.81
2023-08-17T06:25:12.619Z,18.82
2023-08-17T06:30:14.829Z,18.93
2023-08-17T06:35:16.526Z,18.93
2023-08-17T06:40:18.363Z,18.55
2023-08-17T06:45:20.161Z,19.13
2023-08-17T06:50:21.896Z,19.12
2023-08-17T06:55:25.979Z,18.84
2023-08-17T07:00:30.122Z,19.32
2023-08-17T07:05:31.765Z,19.61
2023-08-17T07:10:33.404Z,19.41
2023-08-17T07:15:35.078Z,19.49
2023-08-17T07:20:40.692Z,19.31
2023-08-17T07:25:42.345Z,19.74
2023-08-17T07:30:43.962Z,19.78
2023-08-17T07:35:45.579Z,19.99
2023-08-17T07:40:47.177Z,20.22
2023-08-17T07:45:59.766Z,19.75
2023-08-17T07:51:01.510Z,20.29
2023-08-17T07:56:03.348Z,20.63
2023-08-17T08:01:05.558Z,20.51
2023-08-17T08:06:09.803Z,19.85
2023-08-17T08:11:11.456Z,20.35
2023-08-17T08:16:13.244Z,20.30
2023-08-17T08:21:14.937Z,20.67
2023-08-17T08:26:16.646Z,20.53
2023-08-17T08:31:18.314Z,20.70
2023-08-17T08:36:20.185Z,21.00
2023-08-17T08:41:22.753Z,20.39
2023-08-17T08:46:27.838Z,20.96
2023-08-17T08:51:34.603Z,21.37
2023-08-17T08:56:39.835Z,20.94
2023-08-17T09:01:42.338Z,21.21
2023-08-17T09:06:44.921Z,21.28
2023-08-17T09:11:46.670Z,21.21
2023-08-17T09:16:48.450Z,21.00
2023-08-17T09:21:51.727Z,20.87
2023-08-17T09:26:55.606Z,21.28
2023-08-17T09:31:57.220Z,21.52
2023-08-17T09:37:07.495Z,21.54
2023-08-17T09:42:12.175Z,21.40
2023-08-17T09:47:13.925Z,21.80
2023-08-17T09:52:15.528Z,21.95
2023-08-17T09:57:22.755Z,21.90
2023-08-17T10:02:25.919Z,21.96
2023-08-17T10:07:33.709Z,22.16
2023-08-17T10:12:46.848Z,22.02
2023-08-17T10:17:59.696Z,22.14
2023-08-17T10:23:15.714Z,21.93
2023-08-17T10:28:18.302Z,22.16
2023-08-17T10:33:20.543Z,22.30
2023-08-17T10:38:22.265Z,22.48
2023-08-17T10:43:33.437Z,22.68
2023-08-17T10:48:37.801Z,22.81
2023-08-17T10:53:44.060Z,22.43
2023-08-17T10:58:45.791Z,22.65
2023-08-17T11:03:47.659Z,22.56
2023-08-17T11:08:59.752Z,22.53
2023-08-17T11:14:01.675Z,22.72
2023-08-17T11:19:04.034Z,22.90
2023-08-17T11:24:10.281Z,23.21
2023-08-17T11:29:12.482Z,23.40
2023-08-17T11:34:16.468Z,23.35
2023-08-17T11:39:22.030Z,23.34
2023-08-17T11:44:24.909Z,23.42
2023-08-17T11:49:30.001Z,23.51
2023-08-17T11:54:34.305Z,23.53
2023-08-17T11:59:36.057Z,23.66
2023-08-17T12:04:38.397Z,23.66
2023-08-17T12:09:41.046Z,23.65
2023-08-17T12:14:45.357Z,23.80
2023-08-17T12:19:55.501Z,23.75
2023-08-17T12:24:57.141Z,23.64
2023-08-17T12:29:58.788Z,23.46
2023-08-17T12:35:00.485Z,23.43
2023-08-17T12:40:02.296Z,23.36
2023-08-17T12:45:05.934Z,23.54
2023-08-17T12:50:08.306Z,23.74
2023-08-17T12:55:10.746Z,23.86
2023-08-17T13:00:13.064Z,23.85
2023-08-17T13:05:14.784Z,23.47
2023-08-17T13:10:16.551Z,23.26
2023-08-17T13:15:18.204Z,23.07
2023-08-17T13:20:20.104Z,23.08
2023-08-17T13:25:22.095Z,23.10
2023-08-17T13:30:23.890Z,23.16
2023-08-17T13:35:25.813Z,23.04
2023-08-17T13:40:27.433Z,22.88
2023-08-17T13:45:29.214Z,22.77
2023-08-17T13:50:30.921Z,22.94
2023-08-17T13:55:32.934Z,22.92
2023-08-17T14:00:34.580Z,22.77
2023-08-17T14:05:36.491Z,23.12
2023-08-17T14:10:40.143Z,23.07
2023-08-17T14:15:42.283Z,22.92
2023-08-17T14:20:44.047Z,23.01
2023-08-17T14:25:45.750Z,22.93
2023-08-17T14:30:52.571Z,22.64
2023-08-17T14:35:54.474Z,22.54
2023-08-17T14:40:56.162Z,22.52
2023-08-17T14:45:58.092Z,22.36
2023-08-17T14:50:59.827Z,22.29
2023-08-17T14:56:01.522Z,22.18
2023-08-17T15:01:04.301Z,22.26
2023-08-17T15:06:14.475Z,22.09
2023-08-17T15:11:25.789Z,22.70
2023-08-17T15:16:28.932Z,22.55
2023-08-17T15:21:30.793Z,22.89
2023-08-17T15:26:32.520Z,22.59
2023-08-17T15:31:34.201Z,22.36
2023-08-17T15:36:36.486Z,22.34
2023-08-17T15:41:41.585Z,22.43
2023-08-17T15:46:43.327Z,22.57
2023-08-17T15:51:45.665Z,22.17
2023-08-17T15:56:47.330Z,22.27
2023-08-17T16:01:49.046Z,22.22
2023-08-17T16:06:50.653Z,22.06
2023-08-17T16:11:52.291Z,22.12
2023-08-17T16:16:57.135Z,22.09
2023-08-17T16:21:59.344Z,22.06
2023-08-17T16:27:02.270Z,22.22
2023-08-17T16:37:10.011Z,22.19
2023-08-17T16:42:11.719Z,22.11
2023-08-17T16:47:13.446Z,21.76
2023-08-17T16:52:15.147Z,21.38
2023-08-17T16:57:16.991Z,21.40
2023-08-17T17:02:18.702Z,21.49
2023-08-17T17:07:20.331Z,21.20
2023-08-17T17:12:22.000Z,21.70
2023-08-17T17:17:24.002Z,21.77
2023-08-17T17:22:27.382Z,21.71
2023-08-17T17:27:29.168Z,21.15
2023-08-17T17:32:31.058Z,20.95
2023-08-17T17:37:33.860Z,21.64
2023-08-17T17:42:37.701Z,21.09
2023-08-17T17:47:39.358Z,21.00
2023-08-17T17:52:41.080Z,20.76
2023-08-17T17:57:42.968Z,20.66
2023-08-17T18:02:44.713Z,20.59
2023-08-17T18:07:46.473Z,20.90
2023-08-17T18:12:48.133Z,20.97
2023-08-17T18:17:49.835Z,20.80
2023-08-17T18:22:51.809Z,20.77
2023-08-17T18:27:53.714Z,21.30
2023-08-17T18:32:55.520Z,21.36
2023-08-17T18:37:57.629Z,21.18
2023-08-17T18:42:59.513Z,21.77
2023-08-17T18:48:01.295Z,21.00
2023-08-17T18:53:04.418Z,21.30
2023-08-17T18:58:06.182Z,20.85
2023-08-17T19:03:07.913Z,20.72
2023-08-17T19:08:09.616Z,20.56
2023-08-17T19:13:11.299Z,20.38
2023-08-17T19:18:12.999Z,20.28
2023-08-17T19:23:14.746Z,20.26
2023-08-17T19:28:16.974Z,20.26
2023-08-17T19:33:18.695Z,20.36
2023-08-17T19:38:20.405Z,20.44
2023-08-17T19:43:22.142Z,20.47
2023-08-17T19:48:23.852Z,20.36
2023-08-17T19:53:25.610Z,20.42
2023-08-17T19:58:27.232Z,20.38
2023-08-17T20:03:29.844Z,20.33
2023-08-17T20:08:31.650Z,20.29
2023-08-17T20:13:33.307Z,20.28
2023-08-17T20:18:35.062Z,20.17
2023-08-17T20:23:37.990Z,20.22
2023-08-17T20:28:40.245Z,20.28
2023-08-17T20:33:43.845Z,20.18
2023-08-17T20:38:46.922Z,20.22
2023-08-17T20:43:48.581Z,20.23
2023-08-17T20:48:50.854Z,20.24
2023-08-17T20:53:53.585Z,20.22
2023-08-17T20:58:55.696Z,20.28
2023-08-17T21:03:57.425Z,20.28
2023-08-17T21:08:59.101Z,20.25
2023-08-17T21:14:02.731Z,20.25
2023-08-17T21:19:04.583Z,20.27
2023-08-17T21:24:08.037Z,20.20
2023-08-17T21:29:09.772Z,20.16
2023-08-17T21:34:11.448Z,20.14
2023-08-17T21:39:14.434Z,20.15
2023-08-17T21:44:16.258Z,20.16
2023-08-17T21:49:17.921Z,20.22
2023-08-17T21:54:19.592Z,20.25
2023-08-17T21:59:22.259Z,20.21
2023-08-17T22:04:24.230Z,20.22
2023-08-17T22:09:25.999Z,20.32
2023-08-17T22:14:30.207Z,20.15
2023-08-17T22:19:31.901Z,20.08
2023-08-17T22:24:45.348Z,19.90
2023-08-17T22:29:52.405Z,19.98
2023-08-17T22:34:54.570Z,19.88
2023-08-17T22:39:56.245Z,19.84
2023-08-17T22:44:57.930Z,19.82
2023-08-17T22:49:59.913Z,19.91
2023-08-17T22:55:01.589Z,20.06
2023-08-17T23:00:04.834Z,19.99
2023-08-17T23:05:10.334Z,20.05
2023-08-17T23:10:12.904Z,19.91
2023-08-17T23:15:14.616Z,19.85
2023-08-17T23:20:16.286Z,19.82
2023-08-17T23:25:18.027Z,19.79
2023-08-17T23:30:19.853Z,19.72
2023-08-17T23:35:21.520Z,19.64
2023-08-17T23:40:24.315Z,19.48
2023-08-17T23:45:26.186Z,19.63
2023-08-17T23:50:27.826Z,19.51
2023-08-17T23:55:29.510Z,19.49
